Time;durP1;ratioP1;P1;durP2;ratioP2;P2;SDS_P1;SDS_P2;PMS_P1;PMS_P2;Temp;Humidity;BMP_temperature;BMP_pressure;BME280_temperature;BME280_humidity;BME280_pressure;Samples;Min_cycle;Max_cycle;Signal;HPM_P1;HPM_P2
2022/07/30 00:00:34;;;;;;;;;4.25;3.00;;;;;24.00;69.73;101455.16;4901482;29;45329;-92
2022/07/30 00:02:59;;;;;;;;;2.75;2.00;;;;;23.84;70.17;101461.47;4900832;29;44816;-93
2022/07/30 00:05:27;;;;;;;;;4.00;2.25;;;;;23.70;71.25;101473.03;4900238;29;44800;-92
2022/07/30 00:07:52;;;;;;;;;4.80;4.80;;;;;23.66;71.54;101461.66;4916153;29;44898;-92
2022/07/30 00:10:19;;;;;;;;;4.00;2.50;;;;;23.65;71.74;101472.69;4892620;29;44927;-93
2022/07/30 00:12:45;;;;;;;;;5.00;5.00;;;;;23.67;69.29;101473.34;4877347;29;44661;-94
2022/07/30 00:15:10;;;;;;;;;5.00;4.00;;;;;23.64;73.43;101469.09;4892223;29;44645;-93
2022/07/30 00:17:37;;;;;;;;;8.20;5.00;;;;;23.63;74.06;101474.66;4909170;29;44897;-93
2022/07/30 00:20:04;;;;;;;;;5.25;4.00;;;;;23.57;76.21;101476.19;4877760;29;45323;-93
2022/07/30 00:22:30;;;;;;;;;8.00;4.60;;;;;23.49;76.81;101462.63;4893254;29;44790;-92
2022/07/30 00:24:56;;;;;;;;;9.00;4.00;;;;;23.50;76.64;101473.31;4893443;29;44812;-94
2022/07/30 00:27:22;;;;;;;;;4.25;2.75;;;;;23.47;76.73;101462.81;4894444;29;44927;-93
2022/07/30 00:29:48;;;;;;;;;5.80;4.80;;;;;23.41;79.42;101474.34;4915627;29;45346;-94
2022/07/30 00:32:13;;;;;;;;;4.50;4.50;;;;;23.30;80.36;101459.22;4899006;29;44672;-93
2022/07/30 00:34:40;;;;;;;;;4.00;4.00;;;;;23.30;80.45;101469.22;4898048;29;44648;-93
2022/07/30 00:37:12;;;;;;;;;5.00;5.00;;;;;23.25;81.88;101461.59;4916364;29;44945;-93
2022/07/30 00:39:37;;;;;;;;;5.00;5.00;;;;;23.17;82.98;101456.19;4901823;29;45376;-93
2022/07/30 00:42:05;;;;;;;;;4.75;4.75;;;;;23.17;83.61;101452.63;4903121;29;44836;-94
2022/07/30 00:44:30;;;;;;;;;6.60;4.00;;;;;23.16;82.06;101451.78;4904685;29;44665;-93
2022/07/30 00:46:58;;;;;;;;;3.80;3.80;;;;;23.18;81.82;101463.28;4905409;29;44797;-92
2022/07/30 00:49:25;;;;;;;;;6.40;5.60;;;;;23.14;83.66;101452.94;4912762;29;45390;-92
2022/07/30 00:52:00;;;;;;;;;4.40;4.40;;;;;23.16;82.62;101453.63;4914431;29;44718;-93
2022/07/30 00:54:29;;;;;;;;;5.40;5.00;;;;;23.16;78.89;101453.63;4897857;29;44731;-93
2022/07/30 00:56:55;;;;;;;;;5.00;4.00;;;;;23.17;80.53;101449.91;4913289;29;44892;-93
2022/07/30 00:59:21;;;;;;;;;4.00;4.00;;;;;23.14;82.39;101447.53;4897752;29;45299;-93
2022/07/30 01:01:47;;;;;;;;;4.00;4.00;;;;;23.08;76.29;101438.22;4913045;29;44620;-93
2022/07/30 01:04:13;;;;;;;;;5.50;4.25;;;;;23.09;83.47;101440.75;4896521;29;44846;-93
2022/07/30 01:06:40;;;;;;;;;5.00;3.25;;;;;23.08;81.96;101447.19;4913661;29;44987;-94
2022/07/30 01:09:07;;;;;;;;;4.20;4.20;;;;;23.06;83.29;101445.63;4918099;28;45116;-94
2022/07/30 01:11:41;;;;;;;;;4.80;4.80;;;;;22.98;87.25;101454.63;4906844;29;44777;-93
2022/07/30 01:14:08;;;;;;;;;6.60;5.00;;;;;22.90;86.79;101449.16;4913964;28;44730;-93
2022/07/30 01:16:38;;;;;;;;;5.00;5.00;;;;;22.90;87.60;101451.03;4926721;28;44871;-93
2022/07/30 01:22:08;;;;;;;;;5.20;4.80;;;;;22.82;89.45;101449.09;4919518;29;44643;-93
2022/07/30 01:24:39;;;;;;;;;7.60;7.00;;;;;22.78;92.69;101445.06;4921427;29;44770;-92
2022/07/30 01:27:07;;;;;;;;;8.00;6.00;;;;;22.70;90.58;101443.16;4902735;29;44795;-92
2022/07/30 01:29:36;;;;;;;;;5.20;5.20;;;;;22.70;92.03;101451.28;4918259;29;45289;-92
2022/07/30 01:32:06;;;;;;;;;7.40;6.00;;;;;22.60;92.46;101441.59;4918953;29;44739;-93
2022/07/30 01:34:35;;;;;;;;;5.40;5.40;;;;;22.56;93.66;101451.91;4916060;29;44630;-93
2022/07/30 01:37:07;;;;;;;;;8.00;6.00;;;;;22.51;93.58;101438.88;4912717;29;44893;-93
2022/07/30 01:39:36;;;;;;;;;7.60;6.60;;;;;22.49;95.51;101440.06;4899465;29;45169;-92
2022/07/30 01:42:06;;;;;;;;;6.20;6.20;;;;;22.44;96.94;101442.41;4916947;28;44761;-92
2022/07/30 01:44:35;;;;;;;;;6.00;6.00;;;;;22.42;95.07;101436.28;4902310;29;44718;-92
2022/07/30 01:47:02;;;;;;;;;7.25;7.25;;;;;22.34;95.69;101437.13;4917147;29;44808;-92
2022/07/30 01:49:30;;;;;;;;;7.60;6.80;;;;;22.33;89.30;101447.06;4915413;29;45288;-91
2022/07/30 01:51:58;;;;;;;;;9.40;7.40;;;;;22.31;96.18;101442.84;4917636;29;44599;-93
2022/07/30 01:54:28;;;;;;;;;7.40;7.40;;;;;22.23;98.39;101440.94;4919074;29;44795;-93
2022/07/30 01:56:56;;;;;;;;;7.50;7.50;;;;;22.20;92.55;101440.44;4899397;29;44930;-93
2022/07/30 01:59:24;;;;;;;;;5.40;5.40;;;;;22.19;95.95;101431.47;4899785;29;45190;-92
2022/07/30 02:01:53;;;;;;;;;10.00;7.40;;;;;22.21;97.10;101444.81;4912729;29;44745;-94
2022/07/30 02:04:19;;;;;;;;;6.60;5.40;;;;;22.13;99.19;101444.78;4900734;29;44619;-92
2022/07/30 02:07:00;;;;;;;;;9.75;7.50;;;;;22.09;93.22;101444.22;4916336;29;44910;-93
2022/07/30 02:09:32;;;;;;;;;9.20;6.40;;;;;22.03;100.00;101432.16;4924982;28;46915;-92
2022/07/30 02:14:47;;;;;;;;;6.20;6.20;;;;;;;;4915331;29;44737;-93
2022/07/30 02:17:19;;;;;;;;;9.00;6.50;;;;;21.97;99.56;101438.22;4917009;29;44912;-94
2022/07/30 02:19:56;;;;;;;;;7.75;7.00;;;;;21.95;100.00;101437.56;4920186;28;45149;-93
2022/07/30 02:22:45;;;;;;;;;6.40;6.40;;;;;21.93;99.90;101438.72;4918448;29;44750;-94
2022/07/30 02:28:20;;;;;;;;;4.50;4.50;;;;;21.78;100.00;101442.00;4917480;29;44740;-93
2022/07/30 02:30:51;;;;;;;;;8.20;7.00;;;;;21.74;100.00;101435.19;4914726;28;44993;-93
2022/07/30 02:33:28;;;;;;;;;7.00;7.00;;;;;21.73;100.00;101432.66;4914251;29;44665;-93
2022/07/30 02:35:58;;;;;;;;;9.60;7.80;;;;;21.74;100.00;101431.66;4917919;29;44750;-92
2022/07/30 02:38:26;;;;;;;;;7.00;7.00;;;;;21.75;100.00;101438.75;4913609;29;44910;-94
2022/07/30 02:40:57;;;;;;;;;5.60;5.60;;;;;21.70;98.10;101433.81;4900296;29;45315;-92
2022/07/30 02:43:25;;;;;;;;;5.40;5.40;;;;;21.69;100.00;101431.28;4897549;29;44767;-93
2022/07/30 02:45:52;;;;;;;;;7.60;6.00;;;;;21.63;100.00;101419.25;4916736;29;45210;-93
2022/07/30 02:48:23;;;;;;;;;10.25;8.50;;;;;21.66;100.00;101429.75;4917274;28;44904;-93
2022/07/30 02:50:52;;;;;;;;;6.00;6.00;;;;;21.60;96.93;101430.38;4903370;29;46655;-92
2022/07/30 02:53:19;;;;;;;;;7.80;5.60;;;;;21.58;100.00;101426.97;4920303;29;44652;-92
2022/07/30 02:55:48;;;;;;;;;7.60;6.00;;;;;21.53;100.00;101423.91;4903064;29;44773;-92
2022/07/30 02:58:19;;;;;;;;;8.25;8.25;;;;;21.53;100.00;101430.16;4925264;29;44748;-93
2022/07/30 03:00:47;;;;;;;;;9.75;8.50;;;;;21.49;100.00;101434.16;4910405;29;46576;-93
2022/07/30 03:03:15;;;;;;;;;7.40;6.80;;;;;21.50;100.00;101432.31;4921912;28;44865;-92
2022/07/30 03:05:43;;;;;;;;;6.60;5.40;;;;;21.43;100.00;101432.09;4898722;29;44617;-92
2022/07/30 03:08:10;;;;;;;;;10.75;8.00;;;;;21.43;100.00;101434.81;4898902;29;44817;-92
2022/07/30 03:10:38;;;;;;;;;5.60;5.00;;;;;21.41;100.00;101441.34;4896929;29;45268;-93
2022/07/30 03:13:06;;;;;;;;;9.20;7.20;;;;;21.37;100.00;101432.75;4879306;29;45258;-91
2022/07/30 03:15:37;;;;;;;;;5.60;5.40;;;;;21.39;100.00;101443.38;4901693;29;44628;-91
2022/07/30 03:18:05;;;;;;;;;6.00;6.00;;;;;21.37;100.00;101438.16;4918551;29;44874;-92
2022/07/30 03:20:36;;;;;;;;;9.00;7.00;;;;;21.32;100.00;101429.63;4899055;29;45332;-92
2022/07/30 03:23:03;;;;;;;;;6.60;6.60;;;;;21.31;100.00;101433.34;4899003;29;44739;-92
2022/07/30 03:25:30;;;;;;;;;5.80;5.00;;;;;21.24;100.00;101429.53;4889699;29;44616;-93
2022/07/30 03:27:58;;;;;;;;;7.50;6.25;;;;;21.20;100.00;101426.28;4873577;29;44943;-93
2022/07/30 03:30:28;;;;;;;;;5.20;5.20;;;;;21.23;100.00;101430.56;4908243;29;45017;-93
2022/07/30 03:32:55;;;;;;;;;7.80;7.80;;;;;21.16;100.00;101429.47;4888085;29;44604;-92
2022/07/30 03:35:25;;;;;;;;;8.00;7.40;;;;;21.16;100.00;101424.91;4901929;29;45249;-92
2022/07/30 03:37:52;;;;;;;;;6.50;6.00;;;;;21.17;100.00;101432.00;4901332;29;45004;-93
2022/07/30 03:40:19;;;;;;;;;6.60;6.20;;;;;21.09;100.00;101417.59;4917733;29;45466;-93
2022/07/30 03:42:46;;;;;;;;;6.60;6.60;;;;;21.04;100.00;101421.59;4904627;29;44695;-93
2022/07/30 03:45:12;;;;;;;;;7.40;7.40;;;;;20.97;100.00;101422.34;4899403;29;44597;-92
2022/07/30 03:47:40;;;;;;;;;2.75;1.50;;;;;20.93;100.00;101429.06;4895820;28;44994;-92
2022/07/30 03:50:07;;;;;;;;;5.60;5.60;;;;;20.87;100.00;101424.28;4902710;28;45112;-92
2022/07/30 03:52:34;;;;;;;;;5.60;5.60;;;;;20.85;100.00;101431.69;5131191;23;47171;-91
2022/07/30 03:55:01;;;;;;;;;8.20;8.20;;;;;20.77;100.00;101432.44;4951558;28;44677;-92
2022/07/30 03:57:27;;;;;;;;;6.50;5.00;;;;;20.81;100.00;101439.25;4949893;28;44936;-92
2022/07/30 03:59:52;;;;;;;;;8.50;5.00;;;;;20.75;100.00;101440.69;4932887;28;45191;-92
2022/07/30 04:02:18;;;;;;;;;5.75;5.00;;;;;20.78;100.00;101443.06;4933913;28;44789;-92
2022/07/30 04:04:46;;;;;;;;;9.75;6.25;;;;;20.79;100.00;101450.22;4935175;28;44841;-92
2022/07/30 04:07:14;;;;;;;;;5.00;5.00;;;;;20.79;100.00;101444.81;4949692;28;44815;-93
2022/07/30 04:09:42;;;;;;;;;6.20;6.20;;;;;20.81;100.00;101447.34;4950260;28;46899;-92
2022/07/30 04:12:12;;;;;;;;;7.80;7.80;;;;;20.81;100.00;101436.53;4932643;28;44852;-92
2022/07/30 04:14:40;;;;;;;;;6.00;5.00;;;;;20.83;100.00;101437.22;4952034;28;44643;-92
2022/07/30 04:17:28;;;;;;;;;5.50;5.50;;;;;20.79;100.00;101425.91;4934363;28;44880;-92
2022/07/30 04:20:11;;;;;;;;;8.00;6.25;;;;;20.75;100.00;101429.06;4955998;28;45401;-92
2022/07/30 04:22:38;;;;;;;;;8.00;7.20;;;;;20.77;100.00;101444.09;4943784;28;44773;-92
2022/07/30 04:25:08;;;;;;;;;7.80;5.00;;;;;20.73;100.00;101436.44;4939515;28;44770;-91
2022/07/30 04:27:35;;;;;;;;;9.25;7.75;;;;;20.71;100.00;101442.00;4937039;28;44861;-92
2022/07/30 04:30:02;;;;;;;;;8.00;7.20;;;;;20.71;100.00;101446.56;4938520;28;45125;-91
2022/07/30 04:32:29;;;;;;;;;8.60;8.00;;;;;20.73;100.00;101447.25;4938368;28;45354;-91
2022/07/30 04:34:55;;;;;;;;;6.40;6.20;;;;;20.71;100.00;101449.25;4960296;28;44775;-90
2022/07/30 04:37:23;;;;;;;;;7.00;6.00;;;;;20.72;100.00;101445.56;4939782;28;44887;-91
2022/07/30 04:39:53;;;;;;;;;7.60;5.20;;;;;20.78;100.00;101456.59;4941423;28;45117;-92
2022/07/30 04:45:41;;;;;;;;;5.80;5.80;;;;;20.93;100.00;101447.97;4919404;29;44617;-91
2022/07/30 04:48:07;;;;;;;;;8.75;7.00;;;;;21.02;100.00;101455.16;4920417;29;45088;-92
2022/07/30 04:50:39;;;;;;;;;10.50;8.25;;;;;21.13;100.00;101451.38;4921168;29;45271;-91
2022/07/30 04:53:05;;;;;;;;;5.40;5.40;;;;;21.22;100.00;101445.03;4921330;29;44608;-91
2022/07/30 04:55:33;;;;;;;;;5.50;5.50;;;;;21.35;100.00;101456.34;4917314;29;44676;-91
2022/07/30 04:58:01;;;;;;;;;8.00;6.00;;;;;21.46;100.00;101457.97;4915784;29;44840;-91
2022/07/30 05:00:29;;;;;;;;;7.00;6.20;;;;;21.60;100.00;101459.25;4936397;28;45419;-92
2022/07/30 05:02:59;;;;;;;;;6.00;6.00;;;;;21.75;100.00;101457.69;5063970;23;45038;-93
2022/07/30 05:05:31;;;;;;;;;6.00;6.00;;;;;21.86;100.00;101445.78;4915011;28;44623;-93
2022/07/30 05:07:57;;;;;;;;;6.60;6.60;;;;;22.07;100.00;101462.47;4914984;28;44848;-93
2022/07/30 05:10:24;;;;;;;;;6.00;6.00;;;;;22.23;100.00;101464.44;4932560;28;45213;-93
2022/07/30 05:12:50;;;;;;;;;5.00;5.00;;;;;22.39;100.00;101456.44;4914103;28;44563;-93
2022/07/30 05:15:16;;;;;;;;;6.00;6.00;;;;;22.56;100.00;101454.63;4932497;28;44798;-93
2022/07/30 05:20:17;;;;;;;;;4.60;4.60;;;;;22.96;100.00;101467.47;5044155;23;45050;-93
2022/07/30 05:22:43;;;;;;;;;6.00;6.00;;;;;23.14;100.00;101456.50;4936178;28;44621;-93
2022/07/30 05:25:09;;;;;;;;;9.40;6.20;;;;;23.30;100.00;101469.22;4952686;28;44672;-92
2022/07/30 05:27:36;;;;;;;;;8.50;4.75;;;;;23.45;100.00;101466.69;4937674;28;44744;-92
2022/07/30 05:30:02;;;;;;;;;7.60;6.40;;;;;23.67;100.00;101473.34;4935310;28;45280;-92
2022/07/30 05:32:27;;;;;;;;;8.50;7.50;;;;;23.80;100.00;101466.38;4952135;28;44753;-93
2022/07/30 05:34:53;;;;;;;;;8.00;5.00;;;;;24.02;100.00;101472.09;4951293;28;44788;-93
2022/07/30 05:37:19;;;;;;;;;9.00;6.80;;;;;24.18;100.00;101480.22;4916528;28;44933;-93
2022/07/30 05:39:44;;;;;;;;;6.00;6.00;;;;;24.39;100.00;101478.84;4936220;28;44944;-93
2022/07/30 05:42:11;;;;;;;;;10.00;7.50;;;;;24.54;99.49;101474.38;4935228;28;44732;-93
2022/07/30 05:44:36;;;;;;;;;6.60;4.40;;;;;24.71;98.20;101473.28;4934317;28;44683;-94
2022/07/30 05:47:02;;;;;;;;;11.00;6.00;;;;;24.87;99.12;101475.06;4935328;28;44884;-93
2022/07/30 05:49:27;;;;;;;;;7.75;6.00;;;;;25.08;97.00;101478.00;4915556;28;46582;-93
2022/07/30 05:51:53;;;;;;;;;6.00;4.75;;;;;25.19;96.98;101478.63;4930777;28;44647;-92
2022/07/30 05:54:18;;;;;;;;;6.00;4.00;;;;;25.36;98.19;101478.34;4929717;28;44691;-93
2022/07/30 05:56:43;;;;;;;;;6.00;6.00;;;;;25.52;93.90;101487.38;4930871;28;45041;-92
2022/07/30 05:59:09;;;;;;;;;6.00;6.00;;;;;25.68;92.78;101489.16;4930785;28;46739;-92
2022/07/30 06:01:34;;;;;;;;;5.75;5.75;;;;;25.80;91.33;101484.97;4938050;28;44673;-92
2022/07/30 06:04:00;;;;;;;;;5.20;5.20;;;;;25.92;90.45;101480.78;4938852;28;44763;-92
2022/07/30 06:06:26;;;;;;;;;5.75;5.75;;;;;26.06;92.32;101485.41;4944805;28;44808;-92
2022/07/30 06:08:52;;;;;;;;;6.00;5.00;;;;;26.21;89.72;101485.44;4936792;28;45093;-93
2022/07/30 06:11:20;;;;;;;;;6.80;6.80;;;;;26.31;89.20;101486.00;4932772;28;44759;-92
2022/07/30 06:13:46;;;;;;;;;7.80;6.40;;;;;26.30;89.82;101486.16;4931641;28;44607;-93
2022/07/30 06:16:12;;;;;;;;;8.25;7.00;;;;;26.43;86.68;101482.81;4932419;28;44919;-92
2022/07/30 06:18:38;;;;;;;;;12.80;8.40;;;;;26.54;88.14;101480.44;4929194;28;45477;-93
2022/07/30 06:21:03;;;;;;;;;7.75;6.00;;;;;26.74;86.61;101488.03;4934489;28;44620;-94
2022/07/30 06:23:30;;;;;;;;;5.00;5.00;;;;;26.85;86.26;101485.69;4936682;28;44622;-95
2022/07/30 06:25:56;;;;;;;;;7.00;7.00;;;;;26.98;85.57;101492.31;4933730;28;44732;-94
2022/07/30 06:28:22;;;;;;;;;6.75;5.00;;;;;27.04;85.71;101488.84;4931591;28;45471;-94
2022/07/30 06:30:48;;;;;;;;;6.80;4.20;;;;;27.22;83.91;101491.13;4937508;28;44852;-93
2022/07/30 06:33:14;;;;;;;;;6.25;6.25;;;;;27.36;83.29;101496.53;4913591;28;44820;-93
2022/07/30 06:35:41;;;;;;;;;5.20;5.20;;;;;27.53;83.02;101493.56;4946637;28;44788;-93
2022/07/30 06:38:07;;;;;;;;;6.40;6.40;;;;;27.60;82.94;101498.03;4933987;28;45220;-92
2022/07/30 06:40:32;;;;;;;;;5.50;5.50;;;;;27.63;80.33;101502.25;4940230;28;44574;-93
2022/07/30 06:42:58;;;;;;;;;8.75;7.75;;;;;27.56;80.77;101517.72;4939009;28;44612;-93
2022/07/30 06:45:24;;;;;;;;;11.00;9.00;;;;;27.49;81.66;101511.38;4934183;28;44843;-92
2022/07/30 06:47:49;;;;;;;;;10.25;8.25;;;;;27.42;81.28;101520.34;4935749;28;45377;-93
2022/07/30 06:50:17;;;;;;;;;8.00;6.00;;;;;27.44;82.78;101519.28;4940034;28;44563;-93
2022/07/30 06:52:43;;;;;;;;;8.60;7.60;;;;;27.65;81.35;101513.81;4935989;28;44786;-93
2022/07/30 06:55:09;;;;;;;;;10.60;9.40;;;;;27.81;80.64;101519.06;4929724;28;44953;-94
2022/07/30 06:57:34;;;;;;;;;9.50;8.00;;;;;27.78;79.46;101515.88;4930004;28;45269;-93
2022/07/30 07:00:00;;;;;;;;;13.25;8.00;;;;;27.61;78.91;101527.03;4938556;28;44805;-92
2022/07/30 07:02:26;;;;;;;;;9.50;8.50;;;;;27.51;80.61;101525.66;4928366;28;44738;-93
2022/07/30 07:04:51;;;;;;;;;11.75;8.25;;;;;27.33;80.85;101531.56;4913493;28;44881;-92
2022/07/30 07:07:17;;;;;;;;;12.00;9.00;;;;;26.85;77.88;101542.94;4933578;28;45115;-93
2022/07/30 07:09:43;;;;;;;;;10.80;10.80;;;;;26.51;79.24;101531.78;4932133;28;44641;-92
2022/07/30 07:12:08;;;;;;;;;9.25;9.00;;;;;26.38;80.29;101535.97;4939371;28;44606;-93
2022/07/30 07:14:34;;;;;;;;;8.50;8.50;;;;;26.19;81.21;101530.22;4946226;28;44960;-93
2022/07/30 07:17:01;;;;;;;;;10.50;9.00;;;;;26.05;82.32;101538.16;4942546;28;44908;-94
2022/07/30 07:19:27;;;;;;;;;7.20;7.00;;;;;25.96;82.08;101546.59;4928423;28;44795;-94
2022/07/30 07:21:54;;;;;;;;;11.40;9.80;;;;;25.74;83.51;101529.25;4927414;28;44733;-93
2022/07/30 07:24:19;;;;;;;;;9.80;9.80;;;;;25.41;85.32;101542.25;4929109;28;44903;-93
2022/07/30 07:26:45;;;;;;;;;11.00;9.75;;;;;25.10;86.56;101533.09;4931823;28;45136;-93
2022/07/30 07:29:15;;;;;;;;;11.00;9.75;;;;;24.99;87.47;101544.31;4932033;28;44630;-94
2022/07/30 07:35:04;;;;;;;;;8.60;8.60;;;;;24.99;86.68;101540.75;4937252;28;44647;-94
2022/07/30 07:37:30;;;;;;;;;9.00;9.00;;;;;24.97;86.92;101540.94;4920871;28;46674;-93
2022/07/30 07:39:59;;;;;;;;;8.00;8.00;;;;;25.01;87.75;101536.00;4940325;28;44745;-93
2022/07/30 07:42:25;;;;;;;;;5.80;5.40;;;;;24.93;87.74;101538.75;4946098;28;44737;-93
2022/07/30 07:44:50;;;;;;;;;7.00;7.00;;;;;25.21;85.96;101539.13;4947942;28;45003;-92
2022/07/30 07:47:16;;;;;;;;;12.00;9.25;;;;;25.38;85.26;101555.19;4929271;28;45042;-93
2022/07/30 07:49:41;;;;;;;;;8.50;7.75;;;;;25.40;85.25;101541.41;4942661;28;44605;-92
2022/07/30 07:52:07;;;;;;;;;10.00;8.00;;;;;25.23;86.58;101546.06;4940178;28;44633;-92
2022/07/30 07:54:35;;;;;;;;;7.00;7.00;;;;;25.29;84.74;101539.94;4941463;28;44863;-94
2022/07/30 07:57:10;;;;;;;;;7.60;6.80;;;;;25.27;85.11;101543.84;4942081;28;44993;-93
2022/07/30 07:59:50;;;;;;;;;10.20;9.20;;;;;25.22;85.05;101538.09;4941107;28;44601;-94
2022/07/30 08:02:16;;;;;;;;;8.00;7.20;;;;;25.46;83.52;101537.94;4937472;28;44666;-93
2022/07/30 08:04:57;;;;;;;;;7.80;6.00;;;;;25.65;82.38;101533.91;4938242;28;44984;-94
2022/07/30 08:07:28;;;;;;;;;6.80;6.80;;;;;25.73;80.85;101533.84;4943789;28;44991;-94
2022/07/30 08:09:59;;;;;;;;;9.80;9.00;;;;;25.91;81.12;101528.09;4943826;28;44796;-92
2022/07/30 08:12:38;;;;;;;;;;;;;;;;;;;;;
2022/07/30 08:15:08;;;;;;;;;7.60;7.60;;;;;26.24;79.05;101531.34;4939222;28;69136;-93
2022/07/30 08:17:45;;;;;;;;;9.40;8.20;;;;;26.17;79.08;101530.41;4936488;28;45123;-93
2022/07/30 08:20:23;;;;;;;;;6.20;4.00;;;;;26.12;77.62;101521.94;4934903;28;44575;-94
2022/07/30 08:22:52;;;;;;;;;6.40;6.40;;;;;26.15;78.90;101527.84;4933999;28;44805;-93
2022/07/30 08:25:46;;;;;;;;;6.80;6.80;;;;;26.48;77.71;101526.69;4950763;28;44855;-93
2022/07/30 08:28:15;;;;;;;;;9.60;8.80;;;;;26.83;76.01;101533.25;4937058;28;45265;-93
2022/07/30 08:30:56;;;;;;;;;7.20;6.40;;;;;26.88;73.58;101541.69;4937941;28;44815;-94
2022/07/30 08:33:24;;;;;;;;;7.00;7.00;;;;;26.80;72.46;101539.94;4934622;28;44861;-93
2022/07/30 08:35:54;;;;;;;;;8.80;6.00;;;;;26.59;73.25;101543.44;4922381;28;44946;-95
2022/07/30 08:38:25;;;;;;;;;3.20;3.20;;;;;26.63;73.92;101546.63;4919204;28;45160;-93
2022/07/30 08:40:58;;;;;;;;;6.00;6.00;;;;;26.37;69.57;101552.50;4933575;28;44778;-94
2022/07/30 08:43:29;;;;;;;;;7.40;6.60;;;;;25.96;74.00;101550.16;4934979;28;44754;-93
2022/07/30 08:45:59;;;;;;;;;6.80;6.00;;;;;25.84;74.32;101544.31;4928695;28;44994;-93
2022/07/30 08:48:47;;;;;;;;;7.00;5.60;;;;;25.94;74.68;101549.50;4910633;28;45138;-93
2022/07/30 08:51:21;;;;;;;;;9.20;6.20;;;;;26.20;75.46;101545.53;4937970;28;44702;-93
2022/07/30 08:53:49;;;;;;;;;9.40;7.60;;;;;26.26;73.53;101552.97;4938790;28;44585;-94
2022/07/30 08:56:18;;;;;;;;;5.80;5.80;;;;;26.40;73.10;101546.69;4907318;28;44801;-93
2022/07/30 08:58:46;;;;;;;;;7.20;5.60;;;;;26.43;71.25;101545.50;4923666;28;45012;-94
2022/07/30 09:01:12;;;;;;;;;7.20;6.20;;;;;25.98;73.40;101547.28;4932011;28;44634;-92
2022/07/30 09:03:38;;;;;;;;;6.00;6.00;;;;;26.12;73.52;101557.34;4913110;28;44638;-94
2022/07/30 09:06:15;;;;;;;;;5.00;4.60;;;;;26.20;72.95;101542.78;4937764;28;44796;-93
2022/07/30 09:08:41;;;;;;;;;6.80;5.20;;;;;26.26;71.39;101552.97;4933532;28;45075;-92
2022/07/30 09:11:07;;;;;;;;;6.00;4.60;;;;;26.48;68.67;101554.78;4929902;28;44700;-92
2022/07/30 09:13:40;;;;;;;;;5.00;5.00;;;;;26.82;69.75;101553.38;4928117;28;44706;-92
2022/07/30 09:16:06;;;;;;;;;8.80;7.20;;;;;27.05;69.56;101554.09;4911989;28;44830;-92
2022/07/30 09:18:41;;;;;;;;;9.60;8.00;;;;;27.25;68.44;101543.44;4930679;28;44998;-92
2022/07/30 09:21:33;;;;;;;;;8.40;6.00;;;;;27.54;70.78;101561.59;4937114;28;44880;-93
2022/07/30 09:24:01;;;;;;;;;5.20;5.20;;;;;27.75;67.03;101555.31;4940798;28;45049;-92
2022/07/30 09:26:29;;;;;;;;;7.00;7.00;;;;;27.77;65.19;101560.59;4933091;28;44804;-93
2022/07/30 09:29:13;;;;;;;;;7.60;6.00;;;;;27.94;64.29;101556.53;4929025;28;44951;-92
2022/07/30 09:31:55;;;;;;;;;5.40;5.20;;;;;27.78;62.93;101559.56;4929201;28;44582;-92
2022/07/30 09:34:32;;;;;;;;;9.60;6.60;;;;;27.83;64.64;101562.53;4927857;28;44619;-92
2022/07/30 09:37:01;;;;;;;;;8.25;6.25;;;;;27.87;62.56;101569.31;4932315;28;44888;-91
2022/07/30 09:39:31;;;;;;;;;7.00;6.00;;;;;27.96;63.79;101575.50;4935612;28;45299;-92
2022/07/30 09:41:57;;;;;;;;;4.80;3.40;;;;;28.08;66.54;101565.69;4933370;28;44781;-93
2022/07/30 09:44:28;;;;;;;;;6.25;4.00;;;;;27.97;61.86;101566.25;4930878;28;44771;-94
2022/07/30 09:46:54;;;;;;;;;5.60;4.80;;;;;28.08;62.93;101563.81;4935533;28;44855;-93
2022/07/30 09:49:26;;;;;;;;;6.60;6.60;;;;;28.26;61.46;101571.53;4937944;28;45342;-92
2022/07/30 09:51:53;;;;;;;;;5.80;5.80;;;;;27.99;60.02;101561.41;4933406;28;44656;-93
2022/07/30 09:54:19;;;;;;;;;3.20;3.20;;;;;27.97;60.20;101569.81;4940463;28;44626;-92
2022/07/30 09:56:45;;;;;;;;;2.00;2.00;;;;;27.96;59.00;101578.22;4940913;28;44980;-93
2022/07/30 09:59:30;;;;;;;;;5.00;5.00;;;;;27.97;59.59;101575.28;4940491;28;46651;-93
2022/07/30 10:01:57;;;;;;;;;7.20;6.00;;;;;28.02;59.93;101564.59;4939280;28;44778;-93
2022/07/30 10:04:29;;;;;;;;;9.40;6.20;;;;;28.02;59.53;101566.50;4939038;28;44836;-93
2022/07/30 10:06:57;;;;;;;;;5.00;4.75;;;;;28.24;61.08;101564.56;4935498;28;44815;-92
2022/07/30 10:09:30;;;;;;;;;8.00;6.80;;;;;28.32;59.63;101557.06;4941509;28;45154;-92
2022/07/30 10:12:00;;;;;;;;;7.00;7.00;;;;;28.52;58.50;101562.69;4946244;28;44775;-92
2022/07/30 10:14:29;;;;;;;;;6.40;5.60;;;;;28.69;57.37;101557.75;4948063;28;44769;-92
2022/07/30 10:16:56;;;;;;;;;6.60;5.00;;;;;28.92;56.31;101558.28;4947802;28;44929;-92
2022/07/30 10:19:23;;;;;;;;;6.80;6.80;;;;;29.12;54.33;101560.28;4947168;28;46684;-92
2022/07/30 10:21:49;;;;;;;;;6.40;6.00;;;;;29.25;52.58;101562.22;4945667;28;44742;-93
2022/07/30 10:24:18;;;;;;;;;6.60;5.40;;;;;29.31;54.01;101564.97;4944254;28;44692;-93
2022/07/30 10:26:48;;;;;;;;;4.20;4.20;;;;;29.21;52.50;101569.16;4942588;28;44923;-92
2022/07/30 10:29:16;;;;;;;;;8.00;7.00;;;;;29.19;52.16;101559.25;4936186;28;45249;-92
2022/07/30 10:31:44;;;;;;;;;4.40;4.40;;;;;28.91;52.78;101563.94;4942381;28;44598;-92
2022/07/30 10:34:13;;;;;;;;;7.40;5.40;;;;;28.52;53.11;101559.09;4945765;28;44654;-93
2022/07/30 10:36:51;;;;;;;;;5.00;5.00;;;;;28.49;53.53;101549.44;4944876;28;44813;-91
2022/07/30 10:39:31;;;;;;;;;5.00;5.00;;;;;28.91;55.16;101550.25;4924662;28;45133;-92
2022/07/30 10:42:20;;;;;;;;;2.00;2.00;;;;;29.34;53.50;101542.66;4932931;28;44805;-92
2022/07/30 10:45:18;;;;;;;;;4.00;4.00;;;;;29.70;53.01;101533.28;4935441;28;44635;-92
2022/07/30 10:47:54;;;;;;;;;4.40;4.40;;;;;29.76;50.57;101540.66;4935842;28;45073;-94
2022/07/30 10:50:25;;;;;;;;;4.80;4.40;;;;;29.25;50.85;101534.84;4941904;28;45250;-92
2022/07/30 10:52:53;;;;;;;;;4.60;4.60;;;;;29.08;51.21;101529.75;4928819;28;44763;-92
2022/07/30 10:55:27;;;;;;;;;7.00;6.00;;;;;28.90;52.92;101543.09;4937709;28;44636;-93
2022/07/30 10:58:03;;;;;;;;;7.20;5.20;;;;;29.06;52.40;101541.94;4938488;28;44800;-93
2022/07/30 11:00:33;;;;;;;;;8.40;8.40;;;;;29.23;53.41;101537.78;4932948;28;46540;-93
2022/07/30 11:03:27;;;;;;;;;5.80;5.80;;;;;29.25;51.26;101538.41;4932796;28;44828;-93
2022/07/30 11:06:14;;;;;;;;;5.60;5.60;;;;;28.71;54.51;101525.56;4930897;28;44825;-93
2022/07/30 11:08:42;;;;;;;;;4.80;4.80;;;;;28.66;54.08;101528.91;4928767;28;44812;-94
2022/07/30 11:11:23;;;;;;;;;5.20;5.20;;;;;28.56;54.49;101527.59;4926854;28;45131;-93
2022/07/30 11:14:03;;;;;;;;;8.00;7.00;;;;;28.96;54.20;101528.63;4933378;28;44749;-93
2022/07/30 11:16:32;;;;;;;;;7.20;3.80;;;;;29.24;53.91;101524.94;4932975;28;44946;-93
2022/07/30 11:19:07;;;;;;;;;6.80;6.60;;;;;29.47;53.09;101524.56;4933464;28;45539;-92
2022/07/30 11:21:34;;;;;;;;;6.00;6.00;;;;;29.72;54.64;101508.41;4933117;28;45164;-94
2022/07/30 11:24:00;;;;;;;;;5.00;4.00;;;;;30.02;53.22;101508.81;4937789;28;44758;-93
2022/07/30 11:26:38;;;;;;;;;6.00;6.00;;;;;30.11;52.79;101511.13;4920669;28;44746;-93
2022/07/30 11:29:05;;;;;;;;;7.20;5.20;;;;;29.99;51.21;101514.75;4945197;28;44894;-94
2022/07/30 11:31:33;;;;;;;;;4.00;3.60;;;;;29.73;52.68;101512.81;4945791;28;45476;-94
2022/07/30 11:34:17;;;;;;;;;5.20;5.20;;;;;29.84;52.14;101507.56;4940423;28;44886;-93
2022/07/30 11:37:16;;;;;;;;;5.40;5.00;;;;;29.84;52.18;101507.56;4939692;28;44829;-94
2022/07/30 11:40:14;;;;;;;;;6.40;5.80;;;;;29.78;51.35;101504.81;4934605;28;44896;-93
2022/07/30 11:42:42;;;;;;;;;8.00;6.80;;;;;29.59;52.22;101506.50;4862015;29;46700;-92
2022/07/30 11:45:25;;;;;;;;;5.40;5.40;;;;;29.61;52.75;101493.44;4862769;29;44829;-93
2022/07/30 11:47:54;;;;;;;;;6.60;6.00;;;;;29.57;53.18;101494.91;4864686;29;44796;-94
2022/07/30 11:50:25;;;;;;;;;2.00;2.00;;;;;29.81;51.56;101496.19;4845456;29;44862;-93
2022/07/30 11:53:00;;;;;;;;;5.40;5.40;;;;;29.58;52.11;101497.44;4856014;29;45310;-93